createdAt,value
2023-01-21T00:00:20.862Z,16.97
2023-01-21T00:03:08.529Z,17.80
2023-01-21T00:05:58.161Z,16.50
2023-01-21T00:08:45.529Z,16.70
2023-01-21T00:11:32.872Z,16.03
2023-01-21T00:14:20.325Z,17.33
2023-01-21T00:17:07.725Z,17.40
2023-01-21T00:19:55.070Z,17.47
2023-01-21T00:22:42.452Z,17.67
2023-01-21T00:25:29.912Z,17.10
2023-01-21T00:28:17.380Z,17.07
2023-01-21T00:31:06.288Z,17.50
2023-01-21T00:33:53.766Z,18.93
2023-01-21T00:36:41.125Z,18.10
2023-01-21T00:39:28.519Z,17.60
2023-01-21T00:42:15.879Z,16.73
2023-01-21T00:45:03.405Z,16.93
2023-01-21T00:47:50.769Z,17.27
2023-01-21T00:50:38.127Z,17.17
2023-01-21T00:53:25.870Z,16.40
2023-01-21T00:56:13.939Z,15.90
2023-01-21T00:59:01.525Z,17.37
2023-01-21T01:01:48.946Z,16.67
2023-01-21T01:04:36.359Z,15.13
2023-01-21T01:07:23.777Z,17.80
2023-01-21T01:10:11.464Z,17.80
2023-01-21T01:12:58.845Z,18.03
2023-01-21T01:15:47.414Z,17.70
2023-01-21T01:18:35.579Z,17.80
2023-01-21T01:21:23.216Z,17.77
2023-01-21T01:24:10.555Z,18.33
2023-01-21T01:26:57.917Z,18.53
2023-01-21T01:29:46.043Z,16.27
2023-01-21T01:32:33.390Z,17.40
2023-01-21T01:35:20.732Z,17.27
2023-01-21T01:38:09.458Z,18.57
2023-01-21T01:40:56.844Z,18.23
2023-01-21T01:43:50.133Z,16.80
2023-01-21T01:46:37.768Z,16.83
2023-01-21T01:49:25.231Z,17.03
2023-01-21T01:52:13.370Z,16.43
2023-01-21T01:55:01.476Z,15.83
2023-01-21T01:57:51.748Z,17.63
2023-01-21T02:00:39.215Z,16.23
2023-01-21T02:03:46.359Z,16.80
2023-01-21T02:06:34.768Z,17.10
2023-01-21T02:09:22.236Z,17.93
2023-01-21T02:12:09.601Z,17.13
2023-01-21T02:14:57.014Z,17.57
2023-01-21T02:17:53.724Z,16.13
2023-01-21T02:20:58.511Z,17.73
2023-01-21T02:23:48.616Z,16.33
2023-01-21T02:26:45.095Z,17.47
2023-01-21T02:29:47.250Z,17.53
2023-01-21T02:32:53.575Z,18.50
2023-01-21T02:35:46.502Z,17.70
2023-01-21T02:38:38.970Z,19.40
2023-01-21T02:41:35.198Z,17.77
2023-01-21T02:44:28.398Z,18.40
2023-01-21T02:47:16.414Z,17.80
2023-01-21T02:50:03.763Z,17.40
2023-01-21T02:52:58.176Z,17.83
2023-01-21T02:55:45.544Z,17.20
2023-01-21T02:58:34.202Z,15.90
2023-01-21T03:01:24.700Z,16.50
2023-01-21T03:04:12.033Z,16.97
2023-01-21T03:07:02.045Z,15.80
2023-01-21T03:09:49.618Z,16.63
2023-01-21T03:12:36.987Z,14.53
2023-01-21T03:15:46.285Z,15.10
2023-01-21T03:18:42.594Z,16.20
2023-01-21T03:21:31.664Z,14.93
2023-01-21T03:24:19.856Z,15.30
2023-01-21T03:27:09.952Z,14.30
2023-01-21T03:30:03.078Z,16.77
2023-01-21T03:32:51.323Z,17.07
2023-01-21T03:35:42.773Z,17.37
2023-01-21T03:38:35.721Z,16.33
2023-01-21T03:41:31.986Z,15.27
2023-01-21T03:44:19.340Z,17.07
2023-01-21T03:47:20.393Z,14.87
2023-01-21T03:50:11.572Z,16.57
2023-01-21T03:52:58.960Z,15.83
2023-01-21T03:55:46.395Z,16.13
2023-01-21T03:58:33.759Z,17.53
2023-01-21T04:01:21.368Z,16.37
2023-01-21T04:04:09.440Z,18.20
2023-01-21T04:06:56.833Z,16.93
2023-01-21T04:09:44.197Z,17.10
2023-01-21T04:12:31.531Z,18.23
2023-01-21T04:15:18.890Z,18.03
2023-01-21T04:18:06.276Z,18.00
2023-01-21T04:20:53.861Z,19.60
2023-01-21T04:23:41.371Z,18.23
2023-01-21T04:26:28.727Z,20.00
2023-01-21T04:29:17.198Z,20.83
2023-01-21T04:32:04.807Z,19.90
2023-01-21T04:34:52.197Z,20.03
2023-01-21T04:37:39.528Z,20.73
2023-01-21T04:40:26.946Z,20.17
2023-01-21T04:43:14.430Z,18.57
2023-01-21T04:46:01.877Z,20.63
2023-01-21T04:48:49.287Z,18.17
2023-01-21T04:51:36.667Z,20.13
2023-01-21T04:54:24.032Z,20.03
2023-01-21T04:57:11.901Z,20.60
2023-01-21T04:59:59.288Z,20.63
2023-01-21T05:02:46.658Z,20.17
2023-01-21T05:05:34.036Z,20.53
2023-01-21T05:08:21.479Z,20.50
2023-01-21T05:11:09.570Z,21.20
2023-01-21T05:13:56.995Z,22.33
2023-01-21T05:16:44.470Z,22.27
2023-01-21T05:19:31.872Z,23.17
2023-01-21T05:22:19.559Z,23.77
2023-01-21T05:25:07.082Z,22.00
2023-01-21T05:27:55.140Z,20.60
2023-01-21T05:30:44.508Z,21.50
2023-01-21T05:33:33.157Z,20.13
2023-01-21T05:36:20.507Z,21.60
2023-01-21T05:39:07.842Z,19.97
2023-01-21T05:41:55.244Z,20.67
2023-01-21T05:44:42.643Z,22.00
2023-01-21T05:47:30.035Z,20.70
2023-01-21T05:50:17.729Z,19.50
2023-01-21T05:53:05.237Z,21.00
2023-01-21T05:55:53.605Z,20.97
2023-01-21T05:58:41.065Z,18.70
2023-01-21T06:01:28.406Z,19.17
2023-01-21T06:04:15.795Z,19.43
2023-01-21T06:07:03.233Z,21.50
2023-01-21T06:09:50.684Z,20.83
2023-01-21T06:12:38.078Z,19.83
2023-01-21T06:15:25.789Z,21.07
2023-01-21T06:18:13.192Z,20.90
2023-01-21T06:21:00.633Z,21.13
2023-01-21T06:23:47.969Z,20.30
2023-01-21T06:26:35.423Z,22.30
2023-01-21T06:29:22.836Z,20.83
2023-01-21T06:32:10.263Z,21.87
2023-01-21T06:34:57.679Z,20.77
2023-01-21T06:37:45.724Z,19.90
2023-01-21T06:40:33.082Z,22.67
2023-01-21T06:43:20.508Z,21.67
2023-01-21T06:46:08.012Z,20.63
2023-01-21T06:48:55.406Z,20.20
2023-01-21T06:51:43.240Z,20.37
2023-01-21T06:54:30.736Z,20.30
2023-01-21T06:57:18.162Z,20.33
2023-01-21T07:00:05.892Z,21.07
2023-01-21T07:02:56.468Z,19.67
2023-01-21T07:05:43.858Z,19.73
2023-01-21T07:08:31.489Z,21.10
2023-01-21T07:11:20.004Z,20.13
2023-01-21T07:14:08.494Z,23.33
2023-01-21T07:16:56.874Z,21.67
2023-01-21T07:19:44.314Z,21.83
2023-01-21T07:22:34.403Z,20.87
2023-01-21T07:25:22.727Z,20.53
2023-01-21T07:28:10.635Z,21.90
2023-01-21T07:31:07.035Z,21.73
2023-01-21T07:33:56.419Z,22.27
2023-01-21T07:36:44.604Z,22.47
2023-01-21T07:39:32.469Z,21.87
2023-01-21T07:42:20.213Z,22.17
2023-01-21T07:45:08.610Z,22.87
2023-01-21T07:47:56.167Z,22.57
2023-01-21T07:50:43.962Z,22.03
2023-01-21T07:53:31.573Z,22.47
2023-01-21T07:56:20.255Z,22.73
2023-01-21T07:59:08.499Z,23.27
2023-01-21T08:01:57.966Z,24.03
2023-01-21T08:04:47.245Z,23.73
2023-01-21T08:07:35.621Z,23.40
2023-01-21T08:10:23.976Z,24.17
2023-01-21T08:13:11.853Z,24.67
2023-01-21T08:15:59.947Z,24.10
2023-01-21T08:18:47.374Z,25.23
2023-01-21T08:21:35.516Z,23.83
2023-01-21T08:24:23.247Z,23.53
2023-01-21T08:27:11.405Z,24.97
2023-01-21T08:29:58.987Z,23.67
2023-01-21T08:32:46.490Z,24.03
2023-01-21T08:35:35.049Z,23.50
2023-01-21T08:38:25.304Z,22.77
2023-01-21T08:41:12.884Z,26.67
2023-01-21T08:44:02.992Z,24.40
2023-01-21T08:46:51.029Z,27.13
2023-01-21T08:49:38.711Z,23.07
2023-01-21T08:52:26.639Z,24.07
2023-01-21T08:55:15.443Z,25.50
2023-01-21T08:58:03.702Z,26.37
2023-01-21T09:00:52.348Z,23.43
2023-01-21T09:03:40.946Z,23.00
2023-01-21T09:06:30.785Z,23.47
2023-01-21T09:09:19.357Z,25.37
2023-01-21T09:12:08.999Z,24.53
2023-01-21T09:14:56.950Z,22.93
2023-01-21T09:17:44.500Z,22.50
2023-01-21T09:20:32.678Z,24.03
2023-01-21T09:23:28.051Z,23.43
2023-01-21T09:26:15.570Z,22.17
2023-01-21T09:29:03.867Z,23.63
2023-01-21T09:31:54.348Z,21.33
2023-01-21T09:34:42.752Z,23.70
2023-01-21T09:37:30.440Z,23.30
2023-01-21T09:40:18.263Z,22.83
2023-01-21T09:43:14.016Z,23.00
2023-01-21T09:46:04.246Z,21.93
2023-01-21T09:48:52.525Z,21.17
2023-01-21T09:51:43.103Z,22.87
2023-01-21T09:54:34.332Z,21.50
2023-01-21T09:57:40.744Z,20.63
2023-01-21T10:00:48.765Z,21.17
2023-01-21T10:03:49.078Z,22.30
2023-01-21T10:06:40.828Z,23.33
2023-01-21T10:09:36.846Z,22.33
2023-01-21T10:12:24.183Z,21.60
2023-01-21T10:15:12.649Z,22.37
2023-01-21T10:18:03.202Z,26.02
2023-01-21T10:20:53.112Z,21.47
2023-01-21T10:23:43.181Z,21.67
2023-01-21T10:26:31.789Z,21.43
2023-01-21T10:29:21.406Z,21.90
2023-01-21T10:32:12.940Z,20.53
2023-01-21T10:35:00.781Z,20.10
2023-01-21T10:38:02.316Z,21.10
2023-01-21T10:40:56.042Z,19.37
2023-01-21T10:43:56.641Z,20.20
2023-01-21T10:46:54.071Z,20.53
2023-01-21T10:49:57.354Z,17.80
2023-01-21T10:52:53.650Z,20.90
2023-01-21T10:55:47.770Z,18.37
2023-01-21T10:58:41.822Z,17.80
2023-01-21T11:01:35.450Z,17.70
2023-01-21T11:04:24.074Z,17.37
2023-01-21T11:07:13.914Z,17.73
2023-01-21T11:10:02.904Z,19.10
2023-01-21T11:12:51.614Z,17.60
2023-01-21T11:15:43.134Z,15.90
2023-01-21T11:18:42.725Z,16.73
2023-01-21T11:21:30.474Z,16.47
2023-01-21T11:24:24.004Z,16.87
2023-01-21T11:27:34.021Z,16.10
2023-01-21T11:30:44.546Z,16.57
2023-01-21T11:33:37.334Z,14.70
2023-01-21T11:36:25.781Z,16.70
2023-01-21T11:39:14.819Z,16.30
2023-01-21T11:42:07.392Z,16.53
2023-01-21T11:44:57.592Z,15.87
2023-01-21T11:47:49.815Z,15.83
2023-01-21T11:50:38.531Z,16.37
2023-01-21T11:53:27.025Z,15.13
2023-01-21T11:56:17.199Z,16.10
2023-01-21T11:59:20.311Z,15.93
2023-01-21T12:02:18.586Z,15.30
2023-01-21T12:05:15.785Z,13.50
2023-01-21T12:08:06.204Z,13.60
2023-01-21T12:10:56.239Z,12.70
2023-01-21T12:14:03.383Z,12.30
2023-01-21T12:17:10.683Z,10.13
2023-01-21T12:20:14.651Z,9.70
2023-01-21T12:23:21.797Z,8.67
2023-01-21T12:26:33.056Z,8.10
2023-01-21T12:29:27.279Z,7.93
2023-01-21T12:32:14.754Z,7.53
2023-01-21T12:35:13.968Z,6.63
2023-01-21T12:38:04.012Z,7.60
2023-01-21T12:40:55.007Z,7.67
2023-01-21T12:43:46.101Z,8.30
2023-01-21T12:46:37.561Z,8.27
2023-01-21T12:49:28.538Z,9.03
2023-01-21T12:52:39.354Z,8.53
2023-01-21T12:55:39.042Z,7.67
2023-01-21T12:58:31.041Z,8.03
2023-01-21T13:01:40.121Z,8.30
2023-01-21T13:04:33.558Z,7.60
2023-01-21T13:07:39.593Z,7.17
2023-01-21T13:10:29.775Z,8.30
2023-01-21T13:13:32.796Z,7.60
2023-01-21T13:16:21.105Z,7.90
2023-01-21T13:19:11.113Z,7.63
2023-01-21T13:22:04.561Z,7.17
2023-01-21T13:25:01.125Z,7.00
2023-01-21T13:28:07.262Z,6.93
2023-01-21T13:31:03.473Z,6.93
2023-01-21T13:34:06.109Z,6.13
2023-01-21T13:37:03.863Z,6.03
2023-01-21T13:40:14.619Z,6.53
2023-01-21T13:43:19.170Z,4.97
2023-01-21T13:46:33.125Z,5.40
2023-01-21T13:49:39.297Z,4.73
2023-01-21T13:52:39.350Z,4.83
2023-01-21T13:55:32.293Z,4.60
2023-01-21T13:58:29.643Z,4.30
2023-01-21T14:01:26.298Z,4.03
2023-01-21T14:04:32.616Z,4.53
2023-01-21T14:07:25.194Z,4.33
2023-01-21T14:10:23.746Z,5.13
2023-01-21T14:13:14.221Z,5.27
2023-01-21T14:16:08.232Z,5.03
2023-01-21T14:19:07.939Z,5.00
2023-01-21T14:22:17.457Z,5.17
2023-01-21T14:25:23.421Z,5.30
2023-01-21T14:28:22.498Z,5.50
2023-01-21T14:31:18.691Z,5.00
2023-01-21T14:34:06.108Z,4.87
2023-01-21T14:36:57.440Z,5.17
2023-01-21T14:39:48.837Z,5.47
2023-01-21T14:42:50.803Z,5.30
2023-01-21T14:45:50.238Z,4.50
2023-01-21T14:48:42.085Z,5.13
2023-01-21T14:51:31.573Z,4.80
2023-01-21T14:54:21.703Z,4.70
2023-01-21T14:57:21.422Z,4.93
2023-01-21T15:00:12.030Z,5.30
2023-01-21T15:03:15.184Z,5.80
2023-01-21T15:06:03.838Z,4.83
2023-01-21T15:08:56.977Z,5.43
2023-01-21T15:11:44.675Z,5.77
2023-01-21T15:14:34.645Z,5.97
2023-01-21T15:17:40.918Z,6.50
2023-01-21T15:20:43.361Z,7.17
2023-01-21T15:23:30.754Z,5.53
2023-01-21T15:26:19.875Z,6.97
2023-01-21T15:29:32.239Z,6.90
2023-01-21T15:32:23.004Z,7.03
2023-01-21T15:35:29.005Z,6.90
2023-01-21T15:38:17.377Z,7.83
2023-01-21T15:41:09.732Z,7.53
2023-01-21T15:44:07.681Z,8.43
2023-01-21T15:47:00.041Z,7.83
2023-01-21T15:49:59.591Z,8.10
2023-01-21T15:52:46.897Z,7.93
2023-01-21T15:55:34.315Z,8.43
2023-01-21T15:58:27.704Z,8.53
2023-01-21T16:01:21.360Z,8.90
2023-01-21T16:04:27.612Z,8.57
2023-01-21T16:07:21.558Z,8.83
2023-01-21T16:10:13.041Z,7.80
2023-01-21T16:13:19.566Z,8.60
2023-01-21T16:16:30.200Z,8.37
2023-01-21T16:19:20.394Z,8.50
2023-01-21T16:22:09.996Z,8.30
2023-01-21T16:25:07.485Z,8.33
2023-01-21T16:27:55.559Z,9.43
2023-01-21T16:30:52.814Z,8.27
2023-01-21T16:33:40.261Z,8.23
2023-01-21T16:36:27.658Z,8.63
2023-01-21T16:39:15.063Z,9.03
2023-01-21T16:42:03.425Z,9.63
2023-01-21T16:44:51.285Z,9.10
2023-01-21T16:47:38.660Z,9.43
2023-01-21T16:50:27.748Z,8.47
2023-01-21T16:53:16.899Z,8.57
2023-01-21T16:56:04.384Z,7.97
2023-01-21T16:58:51.875Z,8.37
2023-01-21T17:01:39.365Z,8.33
2023-01-21T17:04:26.837Z,9.13
2023-01-21T17:07:19.678Z,8.63
2023-01-21T17:10:16.500Z,7.93
2023-01-21T17:13:05.393Z,8.47
2023-01-21T17:16:01.694Z,8.10
2023-01-21T17:18:52.383Z,8.73
2023-01-21T17:21:51.006Z,8.50
2023-01-21T17:24:43.812Z,8.73
2023-01-21T17:27:33.192Z,9.17
2023-01-21T17:30:31.803Z,9.83
2023-01-21T17:33:30.589Z,9.60
2023-01-21T17:36:30.513Z,9.17
2023-01-21T17:39:36.606Z,9.00
2023-01-21T17:42:30.362Z,8.97
2023-01-21T17:45:20.509Z,9.00
2023-01-21T17:48:14.715Z,8.53
2023-01-21T17:51:06.591Z,8.40
2023-01-21T17:53:56.348Z,8.43
2023-01-21T17:56:49.792Z,7.93
2023-01-21T17:59:41.624Z,8.03
2023-01-21T18:02:29.129Z,8.13
2023-01-21T18:05:16.888Z,8.00
2023-01-21T18:08:06.828Z,7.90
2023-01-21T18:10:54.259Z,6.93
2023-01-21T18:13:41.703Z,8.00
2023-01-21T18:16:29.894Z,7.77
2023-01-21T18:19:28.290Z,7.77
2023-01-21T18:22:29.359Z,7.93
2023-01-21T18:25:17.232Z,7.97
2023-01-21T18:28:07.106Z,6.97
2023-01-21T18:30:55.638Z,8.13
2023-01-21T18:33:43.152Z,8.03
2023-01-21T18:36:30.535Z,7.70
2023-01-21T18:39:19.110Z,7.33
2023-01-21T18:42:06.576Z,7.77
2023-01-21T18:44:53.935Z,8.60
2023-01-21T18:47:41.303Z,8.03
2023-01-21T18:50:30.329Z,7.53
2023-01-21T18:53:17.780Z,8.10
2023-01-21T18:56:08.561Z,7.00
2023-01-21T18:58:55.911Z,7.60
2023-01-21T19:01:43.909Z,6.43
2023-01-21T19:04:31.393Z,7.40
2023-01-21T19:07:22.831Z,7.47
2023-01-21T19:10:12.900Z,7.50
2023-01-21T19:13:00.251Z,6.90
2023-01-21T19:15:48.069Z,7.20
2023-01-21T19:18:36.055Z,7.33
2023-01-21T19:21:23.537Z,7.77
2023-01-21T19:24:12.287Z,7.27
2023-01-21T19:27:00.360Z,6.63
2023-01-21T19:29:47.727Z,8.77
2023-01-21T19:32:35.100Z,7.20
2023-01-21T19:35:32.155Z,6.50
2023-01-21T19:38:21.340Z,7.27
2023-01-21T19:41:08.887Z,7.13
2023-01-21T19:43:56.642Z,6.80
2023-01-21T19:46:44.304Z,6.77
2023-01-21T19:49:31.948Z,7.13
2023-01-21T19:52:19.341Z,6.83
2023-01-21T19:55:07.511Z,7.43
2023-01-21T19:57:58.777Z,7.63
2023-01-21T20:00:50.293Z,7.57
2023-01-21T20:03:38.882Z,7.43
2023-01-21T20:06:33.762Z,7.47
2023-01-21T20:09:21.182Z,7.47
2023-01-21T20:12:09.742Z,8.50
2023-01-21T20:14:57.165Z,8.10
2023-01-21T20:17:49.242Z,8.00
2023-01-21T20:20:36.948Z,8.10
2023-01-21T20:23:25.674Z,7.93
2023-01-21T20:26:17.088Z,8.23
2023-01-21T20:29:06.967Z,8.60
2023-01-21T20:31:54.731Z,8.40
2023-01-21T20:34:42.240Z,8.20
2023-01-21T20:37:29.779Z,8.07
2023-01-21T20:40:21.622Z,8.47
2023-01-21T20:43:10.306Z,8.27
2023-01-21T20:46:00.960Z,7.63
2023-01-21T20:48:48.408Z,7.90
2023-01-21T20:51:35.881Z,7.77
2023-01-21T20:54:24.732Z,7.63
2023-01-21T20:57:14.954Z,7.47
2023-01-21T21:00:02.382Z,7.27
2023-01-21T21:02:49.854Z,7.53
2023-01-21T21:05:37.397Z,7.63
2023-01-21T21:08:24.911Z,7.73
2023-01-21T21:11:14.482Z,6.70
2023-01-21T21:14:02.076Z,7.10
2023-01-21T21:16:50.027Z,6.43
2023-01-21T21:19:37.454Z,6.40
2023-01-21T21:22:24.829Z,6.83
2023-01-21T21:25:20.138Z,6.50
2023-01-21T21:28:07.850Z,6.67
2023-01-21T21:30:55.233Z,6.23
2023-01-21T21:33:43.258Z,6.17
2023-01-21T21:36:30.610Z,6.77
2023-01-21T21:39:19.300Z,6.77
2023-01-21T21:42:25.280Z,6.80
2023-01-21T21:45:12.645Z,6.07
2023-01-21T21:48:18.573Z,6.70
2023-01-21T21:51:06.681Z,6.77
2023-01-21T21:53:54.043Z,6.10
2023-01-21T21:56:41.912Z,6.97
2023-01-21T21:59:29.326Z,5.80
2023-01-21T22:02:17.862Z,6.63
2023-01-21T22:05:05.535Z,6.80
2023-01-21T22:07:52.951Z,7.13
2023-01-21T22:10:40.293Z,6.73
2023-01-21T22:13:28.617Z,7.20
2023-01-21T22:16:17.424Z,6.50
2023-01-21T22:19:05.007Z,6.77
2023-01-21T22:21:52.488Z,6.47
2023-01-21T22:24:39.838Z,6.17
2023-01-21T22:27:27.234Z,6.37
2023-01-21T22:30:14.847Z,6.30
2023-01-21T22:33:02.290Z,6.17
2023-01-21T22:35:49.705Z,6.50
2023-01-21T22:38:40.376Z,7.27
2023-01-21T22:41:28.150Z,6.17
2023-01-21T22:44:15.577Z,6.63
2023-01-21T22:47:02.971Z,6.67
2023-01-21T22:49:50.411Z,6.37
2023-01-21T22:52:37.807Z,6.27
2023-01-21T22:55:25.180Z,5.83
2023-01-21T22:58:12.600Z,6.80
2023-01-21T23:01:00.347Z,6.67
2023-01-21T23:03:47.726Z,5.87
2023-01-21T23:06:36.875Z,5.70
2023-01-21T23:09:25.192Z,5.50
2023-01-21T23:12:18.622Z,5.47
2023-01-21T23:15:06.235Z,4.33
2023-01-21T23:17:53.705Z,4.83
2023-01-21T23:20:42.347Z,4.20
2023-01-21T23:23:35.567Z,4.10
2023-01-21T23:26:23.136Z,4.20
2023-01-21T23:29:10.542Z,4.57
2023-01-21T23:31:58.274Z,3.97
2023-01-21T23:34:45.661Z,3.77
2023-01-21T23:37:33.131Z,3.80
2023-01-21T23:40:20.536Z,3.90
2023-01-21T23:43:07.895Z,3.67
2023-01-21T23:45:55.463Z,3.60
2023-01-21T23:48:43.151Z,3.83
2023-01-21T23:51:30.508Z,4.00
2023-01-21T23:54:17.934Z,3.80
2023-01-21T23:57:05.303Z,3.53
2023-01-21T23:59:52.671Z,3.97
